createdAt,value
2023-01-01T00:00:48.082Z,58.95
2023-01-01T00:03:35.789Z,59.48
2023-01-01T00:06:06.248Z,59.44
2023-01-01T00:08:35.180Z,59.17
2023-01-01T00:11:03.611Z,58.79
2023-01-01T00:13:33.033Z,59.51
2023-01-01T00:16:04.697Z,59.61
2023-01-01T00:18:32.312Z,59.24
2023-01-01T00:21:04.223Z,59.11
2023-01-01T00:23:32.137Z,59.01
2023-01-01T00:26:00.198Z,58.71
2023-01-01T00:28:28.053Z,58.93
2023-01-01T00:30:57.479Z,59.29
2023-01-01T00:33:25.024Z,58.37
2023-01-01T00:35:52.964Z,58.79
2023-01-01T00:38:20.595Z,58.68
2023-01-01T00:40:48.539Z,58.80
2023-01-01T00:43:15.991Z,59.21
2023-01-01T00:45:43.941Z,59.32
2023-01-01T00:48:12.913Z,59.42
2023-01-01T00:50:41.067Z,59.19
2023-01-01T00:53:08.667Z,59.89
2023-01-01T00:55:39.113Z,59.42
2023-01-01T00:58:06.823Z,59.25
2023-01-01T01:00:35.390Z,58.84
2023-01-01T01:03:03.104Z,58.94
2023-01-01T01:05:33.508Z,58.14
2023-01-01T01:08:01.105Z,58.24
2023-01-01T01:10:29.142Z,58.18
2023-01-01T01:12:56.738Z,57.86
2023-01-01T01:15:24.800Z,57.84
2023-01-01T01:17:52.278Z,57.70
2023-01-01T01:20:20.486Z,57.80
2023-01-01T01:22:50.331Z,57.26
2023-01-01T01:25:18.498Z,56.90
2023-01-01T01:27:46.060Z,57.37
2023-01-01T01:30:14.305Z,57.33
2023-01-01T01:32:41.819Z,57.86
2023-01-01T01:35:09.950Z,57.28
2023-01-01T01:37:37.567Z,57.76
2023-01-01T01:40:08.667Z,57.60
2023-01-01T01:42:39.318Z,57.32
2023-01-01T01:45:10.968Z,57.04
2023-01-01T01:47:45.109Z,57.17
2023-01-01T01:50:17.591Z,58.01
2023-01-01T01:52:57.084Z,56.85
2023-01-01T01:55:29.172Z,57.67
2023-01-01T01:57:57.402Z,56.92
2023-01-01T02:00:25.590Z,57.22
2023-01-01T02:02:56.905Z,56.55
2023-01-01T02:05:25.375Z,56.49
2023-01-01T02:07:54.100Z,55.94
2023-01-01T02:10:22.350Z,56.07
2023-01-01T02:12:51.517Z,56.11
2023-01-01T02:15:19.673Z,55.89
2023-01-01T02:17:54.484Z,56.23
2023-01-01T02:20:48.454Z,56.11
2023-01-01T02:23:44.196Z,56.30
2023-01-01T02:26:49.940Z,56.28
2023-01-01T02:29:30.642Z,56.53
2023-01-01T02:32:02.649Z,56.52
2023-01-01T02:34:35.099Z,56.08
2023-01-01T02:37:07.501Z,56.27
2023-01-01T02:39:37.837Z,56.03
2023-01-01T02:42:07.960Z,56.28
2023-01-01T02:44:41.823Z,56.16
2023-01-01T02:47:11.741Z,55.56
2023-01-01T02:49:47.133Z,56.00
2023-01-01T02:52:24.206Z,55.79
2023-01-01T02:54:59.961Z,55.28
2023-01-01T02:57:35.576Z,55.15
2023-01-01T03:00:08.224Z,55.68
2023-01-01T03:02:50.737Z,55.73
2023-01-01T03:05:25.339Z,55.75
2023-01-01T03:08:02.768Z,56.08
2023-01-01T03:10:39.916Z,55.63
2023-01-01T03:13:15.617Z,55.72
2023-01-01T03:15:51.557Z,56.08
2023-01-01T03:18:25.488Z,55.87
2023-01-01T03:20:57.491Z,56.23
2023-01-01T03:23:31.585Z,56.49
2023-01-01T03:26:06.052Z,55.90
2023-01-01T03:28:37.945Z,56.64
2023-01-01T03:31:07.546Z,55.70
2023-01-01T03:33:39.897Z,56.08
2023-01-01T03:36:10.319Z,56.32
2023-01-01T03:38:43.484Z,56.78
2023-01-01T03:41:15.523Z,56.16
2023-01-01T03:43:49.710Z,56.38
2023-01-01T03:46:25.576Z,56.11
2023-01-01T03:49:00.301Z,56.34
2023-01-01T03:51:54.819Z,56.04
2023-01-01T03:54:31.152Z,56.51
2023-01-01T03:57:06.288Z,56.48
2023-01-01T03:59:40.932Z,56.32
2023-01-01T04:02:13.204Z,55.96
2023-01-01T04:04:41.883Z,55.70
2023-01-01T04:07:15.290Z,55.61
2023-01-01T04:09:50.342Z,56.04
2023-01-01T04:12:19.444Z,55.50
2023-01-01T04:14:47.416Z,55.54
2023-01-01T04:17:16.483Z,55.27
2023-01-01T04:19:48.750Z,55.60
2023-01-01T04:22:19.217Z,55.07
2023-01-01T04:24:47.143Z,56.17
2023-01-01T04:27:14.704Z,56.12
2023-01-01T04:29:42.638Z,55.48
2023-01-01T04:32:10.149Z,55.10
2023-01-01T04:34:39.540Z,56.09
2023-01-01T04:37:12.927Z,56.56
2023-01-01T04:39:41.730Z,57.03
2023-01-01T04:42:09.337Z,57.49
2023-01-01T04:44:37.201Z,57.28
2023-01-01T04:47:05.140Z,57.40
2023-01-01T04:49:32.949Z,57.26
2023-01-01T04:52:02.009Z,58.57
2023-01-01T04:54:29.941Z,59.62
2023-01-01T04:56:57.504Z,60.19
2023-01-01T04:59:25.499Z,61.02
2023-01-01T05:01:53.230Z,60.57
2023-01-01T05:04:21.240Z,60.30
2023-01-01T05:06:48.874Z,60.67
2023-01-01T05:09:18.765Z,60.94
2023-01-01T05:11:47.924Z,60.35
2023-01-01T05:14:15.860Z,60.32
2023-01-01T05:16:43.498Z,60.36
2023-01-01T05:19:11.627Z,60.97
2023-01-01T05:21:40.300Z,60.78
2023-01-01T05:24:10.625Z,60.63
2023-01-01T05:26:43.142Z,61.34
2023-01-01T05:29:16.514Z,61.25
2023-01-01T05:31:45.545Z,61.74
2023-01-01T05:34:13.738Z,61.32
2023-01-01T05:36:41.356Z,61.01
2023-01-01T05:39:11.016Z,61.33
2023-01-01T05:41:40.280Z,61.76
2023-01-01T05:44:09.195Z,61.69
2023-01-01T05:46:37.219Z,61.58
2023-01-01T05:49:05.300Z,61.71
2023-01-01T05:54:02.905Z,61.33
2023-01-01T05:56:30.545Z,61.27
2023-01-01T05:58:59.907Z,61.80
2023-01-01T06:01:28.942Z,61.33
2023-01-01T06:03:58.216Z,61.20
2023-01-01T06:06:27.323Z,61.03
2023-01-01T06:08:57.058Z,61.16
2023-01-01T06:11:24.699Z,61.75
2023-01-01T06:13:53.443Z,61.55
2023-01-01T06:16:22.621Z,61.82
2023-01-01T06:18:50.857Z,61.66
2023-01-01T06:21:20.647Z,61.30
2023-01-01T06:23:48.789Z,61.61
2023-01-01T06:26:18.021Z,61.92
2023-01-01T06:28:47.132Z,61.89
2023-01-01T06:31:17.202Z,61.78
2023-01-01T06:33:47.415Z,61.76
2023-01-01T06:36:17.038Z,62.15
2023-01-01T06:38:46.703Z,61.91
2023-01-01T06:41:16.425Z,62.25
2023-01-01T06:43:45.157Z,61.96
2023-01-01T06:46:16.440Z,61.39
2023-01-01T06:48:47.125Z,61.41
2023-01-01T06:51:16.721Z,61.54
2023-01-01T06:53:45.457Z,61.43
2023-01-01T06:56:13.259Z,61.86
2023-01-01T06:58:44.164Z,61.77
2023-01-01T07:01:14.464Z,61.63
2023-01-01T07:03:43.191Z,62.00
2023-01-01T07:06:12.326Z,61.56
2023-01-01T07:08:40.297Z,61.14
2023-01-01T07:11:07.834Z,61.19
2023-01-01T07:13:36.112Z,61.14
2023-01-01T07:16:10.209Z,60.46
2023-01-01T07:18:40.882Z,60.50
2023-01-01T07:21:29.630Z,60.61
2023-01-01T07:23:59.148Z,60.61
2023-01-01T07:26:28.353Z,60.87
2023-01-01T07:29:02.770Z,60.44
2023-01-01T07:31:34.423Z,60.47
2023-01-01T07:34:04.808Z,61.09
2023-01-01T07:36:34.316Z,61.29
2023-01-01T07:39:02.475Z,61.25
2023-01-01T07:41:30.126Z,61.54
2023-01-01T07:43:58.173Z,60.70
2023-01-01T07:46:25.677Z,60.20
2023-01-01T07:48:53.697Z,60.14
2023-01-01T07:51:21.187Z,59.41
2023-01-01T07:53:50.724Z,59.27
2023-01-01T07:56:18.496Z,58.19
2023-01-01T07:58:46.860Z,58.27
2023-01-01T08:01:14.583Z,58.81
2023-01-01T08:03:43.043Z,58.16
2023-01-01T08:06:12.096Z,57.63
2023-01-01T08:08:40.420Z,56.41
2023-01-01T08:11:09.554Z,56.46
2023-01-01T08:13:37.502Z,56.59
2023-01-01T08:16:05.825Z,55.45
2023-01-01T08:18:34.012Z,55.89
2023-01-01T08:21:01.682Z,56.40
2023-01-01T08:23:29.716Z,56.04
2023-01-01T08:25:59.405Z,55.16
2023-01-01T08:28:29.955Z,55.67
2023-01-01T08:30:57.512Z,55.18
2023-01-01T08:33:25.417Z,54.32
2023-01-01T08:35:54.673Z,54.44
2023-01-01T08:38:23.007Z,54.61
2023-01-01T08:40:50.685Z,54.21
2023-01-01T08:43:18.871Z,53.08
2023-01-01T08:45:48.735Z,53.72
2023-01-01T08:48:16.729Z,53.52
2023-01-01T08:50:44.307Z,53.40
2023-01-01T08:53:12.241Z,53.76
2023-01-01T08:55:39.817Z,54.48
2023-01-01T08:58:07.821Z,54.55
2023-01-01T09:00:35.448Z,54.35
2023-01-01T09:03:05.015Z,53.87
2023-01-01T09:05:32.683Z,54.21
2023-01-01T09:08:00.634Z,53.53
2023-01-01T09:10:28.275Z,53.67
2023-01-01T09:12:56.066Z,53.32
2023-01-01T09:15:23.588Z,53.13
2023-01-01T09:17:51.659Z,52.68
2023-01-01T09:20:20.902Z,53.55
2023-01-01T09:22:49.206Z,53.25
2023-01-01T09:25:16.767Z,52.66
2023-01-01T09:27:44.828Z,52.87
2023-01-01T09:30:13.506Z,53.05
2023-01-01T09:32:41.587Z,53.20
2023-01-01T09:35:10.216Z,53.34
2023-01-01T09:37:39.585Z,53.55
2023-01-01T09:40:08.342Z,53.78
2023-01-01T09:42:41.370Z,52.62
2023-01-01T09:45:23.416Z,53.07
2023-01-01T09:47:54.815Z,52.84
2023-01-01T09:50:25.428Z,52.04
2023-01-01T09:52:57.998Z,51.72
2023-01-01T09:55:28.317Z,50.71
2023-01-01T09:57:57.482Z,51.34
2023-01-01T10:00:25.509Z,50.68
2023-01-01T10:03:09.261Z,50.59
2023-01-01T10:05:47.071Z,50.61
2023-01-01T10:08:32.304Z,50.40
2023-01-01T10:11:09.484Z,50.17
2023-01-01T10:13:41.010Z,50.40
2023-01-01T10:16:15.221Z,49.95
2023-01-01T10:18:49.670Z,49.92
2023-01-01T10:21:25.760Z,50.50
2023-01-01T10:23:57.941Z,49.80
2023-01-01T10:26:28.742Z,50.20
2023-01-01T10:29:02.971Z,50.67
2023-01-01T10:31:33.920Z,50.62
2023-01-01T10:34:06.517Z,50.75
2023-01-01T10:36:34.051Z,51.57
2023-01-01T10:39:03.522Z,51.37
2023-01-01T10:41:31.730Z,50.61
2023-01-01T10:43:59.917Z,50.25
2023-01-01T10:46:31.826Z,50.18
2023-01-01T10:49:08.760Z,48.78
2023-01-01T10:51:38.198Z,49.13
2023-01-01T10:54:31.291Z,49.80
2023-01-01T10:56:59.526Z,48.97
2023-01-01T10:59:37.286Z,48.52
2023-01-01T11:02:23.937Z,48.78
2023-01-01T11:05:16.306Z,49.58
2023-01-01T11:07:47.651Z,49.67
2023-01-01T11:10:20.461Z,49.05
2023-01-01T11:13:05.678Z,49.27
2023-01-01T11:15:38.222Z,49.80
2023-01-01T11:18:11.956Z,49.63
2023-01-01T11:20:41.035Z,50.48
2023-01-01T11:23:20.073Z,49.56
2023-01-01T11:26:03.335Z,49.47
2023-01-01T11:28:32.347Z,49.81
2023-01-01T11:31:15.975Z,49.15
2023-01-01T11:33:47.903Z,48.84
2023-01-01T11:36:22.466Z,48.33
2023-01-01T11:38:52.264Z,47.45
2023-01-01T11:41:21.678Z,47.47
2023-01-01T11:43:49.287Z,45.70
2023-01-01T11:46:23.806Z,46.38
2023-01-01T11:48:53.729Z,45.00
2023-01-01T11:51:30.990Z,45.78
2023-01-01T11:54:24.353Z,45.72
2023-01-01T11:56:58.850Z,45.56
2023-01-01T11:59:34.262Z,45.64
2023-01-01T12:02:05.180Z,45.40
2023-01-01T12:04:42.704Z,46.10
2023-01-01T12:07:16.094Z,46.54
2023-01-01T12:09:48.588Z,46.91
2023-01-01T12:12:25.331Z,47.60
2023-01-01T12:14:59.363Z,48.23
2023-01-01T12:17:33.439Z,47.98
2023-01-01T12:20:04.663Z,47.45
2023-01-01T12:22:32.863Z,47.53
2023-01-01T12:25:01.160Z,47.93
2023-01-01T12:27:41.653Z,47.52
2023-01-01T12:30:19.180Z,47.68
2023-01-01T12:33:12.104Z,47.25
2023-01-01T12:35:53.357Z,47.21
2023-01-01T12:38:44.527Z,47.16
2023-01-01T12:41:20.041Z,47.02
2023-01-01T12:43:55.023Z,47.32
2023-01-01T12:46:38.765Z,48.06
2023-01-01T12:49:30.603Z,50.39
2023-01-01T12:52:11.104Z,50.33
2023-01-01T12:55:17.867Z,51.59
2023-01-01T12:57:51.687Z,50.97
2023-01-01T13:00:21.547Z,52.03
2023-01-01T13:02:52.503Z,51.86
2023-01-01T13:05:24.248Z,51.34
2023-01-01T13:07:56.298Z,51.40
2023-01-01T13:10:27.844Z,51.70
2023-01-01T13:12:56.827Z,52.05
2023-01-01T13:15:47.354Z,51.85
2023-01-01T13:18:22.683Z,50.33
2023-01-01T13:21:02.956Z,49.78
2023-01-01T13:24:01.219Z,49.40
2023-01-01T13:26:42.138Z,49.40
2023-01-01T13:29:42.762Z,49.99
2023-01-01T13:32:13.858Z,49.88
2023-01-01T13:35:00.369Z,49.22
2023-01-01T13:37:46.966Z,48.79
2023-01-01T13:40:50.238Z,49.46
2023-01-01T13:43:30.039Z,49.05
2023-01-01T13:46:15.261Z,49.47
2023-01-01T13:49:14.072Z,48.95
2023-01-01T13:52:07.549Z,49.05
2023-01-01T13:55:05.605Z,48.54
2023-01-01T13:57:41.129Z,49.42
2023-01-01T14:00:19.268Z,49.64
2023-01-01T14:02:51.037Z,50.17
2023-01-01T14:05:28.235Z,50.24
2023-01-01T14:07:56.004Z,50.45
2023-01-01T14:10:26.954Z,51.02
2023-01-01T14:12:58.159Z,51.21
2023-01-01T14:15:30.376Z,51.65
2023-01-01T14:17:59.022Z,51.93
2023-01-01T14:20:35.934Z,51.94
2023-01-01T14:23:09.347Z,52.06
2023-01-01T14:25:41.023Z,51.99
2023-01-01T14:28:19.330Z,52.33
2023-01-01T14:30:47.922Z,52.23
2023-01-01T14:33:24.023Z,52.22
2023-01-01T14:35:53.938Z,52.13
2023-01-01T14:38:25.756Z,52.38
2023-01-01T14:41:09.252Z,52.78
2023-01-01T14:43:38.037Z,52.72
2023-01-01T14:46:11.161Z,52.93
2023-01-01T14:48:44.245Z,52.54
2023-01-01T14:51:16.952Z,52.37
2023-01-01T14:53:46.912Z,53.22
2023-01-01T14:56:23.801Z,53.50
2023-01-01T14:58:51.614Z,53.60
2023-01-01T15:01:24.208Z,53.66
2023-01-01T15:03:57.050Z,54.43
2023-01-01T15:06:26.989Z,54.42
2023-01-01T15:08:54.712Z,54.37
2023-01-01T15:11:28.548Z,54.47
2023-01-01T15:13:59.667Z,54.74
2023-01-01T15:16:31.103Z,54.97
2023-01-01T15:19:17.642Z,54.52
2023-01-01T15:21:47.664Z,53.93
2023-01-01T15:24:18.454Z,54.24
2023-01-01T15:26:51.171Z,54.28
2023-01-01T15:29:26.387Z,55.13
2023-01-01T15:31:57.946Z,56.41
2023-01-01T15:34:29.391Z,57.88
2023-01-01T15:37:10.622Z,59.37
2023-01-01T15:39:49.918Z,59.99
2023-01-01T15:42:32.259Z,60.95
2023-01-01T15:45:16.295Z,61.26
2023-01-01T15:47:45.054Z,61.61
2023-01-01T15:50:22.966Z,61.55
2023-01-01T15:52:57.031Z,61.74
2023-01-01T15:55:28.165Z,62.18
2023-01-01T15:57:57.240Z,61.67
2023-01-01T16:00:27.348Z,61.75
2023-01-01T16:02:59.767Z,62.17
2023-01-01T16:05:29.104Z,62.17
2023-01-01T16:08:03.936Z,62.55
2023-01-01T16:10:32.230Z,61.57
2023-01-01T16:13:00.360Z,61.57
2023-01-01T16:15:30.385Z,61.37
2023-01-01T16:18:00.396Z,61.40
2023-01-01T16:20:31.076Z,61.19
2023-01-01T16:23:05.145Z,61.26
2023-01-01T16:25:34.370Z,61.08
2023-01-01T16:28:02.391Z,60.74
2023-01-01T16:30:30.509Z,60.73
2023-01-01T16:32:59.787Z,60.92
2023-01-01T16:35:27.472Z,61.26
2023-01-01T16:37:55.652Z,61.58
2023-01-01T16:40:24.965Z,62.33
2023-01-01T16:42:53.159Z,62.25
2023-01-01T16:45:20.814Z,61.94
2023-01-01T16:47:48.918Z,62.48
2023-01-01T16:50:17.838Z,62.87
2023-01-01T16:52:45.846Z,62.27
2023-01-01T16:55:14.043Z,62.17
2023-01-01T16:57:43.735Z,62.25
2023-01-01T17:00:12.419Z,61.83
2023-01-01T17:02:40.810Z,62.28
2023-01-01T17:05:09.934Z,62.31
2023-01-01T17:07:37.961Z,62.18
2023-01-01T17:10:06.362Z,61.40
2023-01-01T17:12:34.390Z,60.90
2023-01-01T17:15:03.637Z,61.52
2023-01-01T17:17:31.707Z,60.60
2023-01-01T17:19:59.382Z,59.82
2023-01-01T17:22:33.888Z,59.83
2023-01-01T17:25:01.929Z,59.80
2023-01-01T17:27:29.930Z,59.47
2023-01-01T17:29:57.509Z,59.43
2023-01-01T17:32:26.891Z,59.42
2023-01-01T17:34:54.464Z,60.32
2023-01-01T17:37:22.439Z,60.03
2023-01-01T17:39:50.101Z,59.99
2023-01-01T17:42:18.127Z,60.05
2023-01-01T17:44:46.235Z,60.04
2023-01-01T17:47:14.281Z,60.47
2023-01-01T17:49:43.766Z,61.77
2023-01-01T17:52:12.400Z,62.15
2023-01-01T17:54:40.075Z,62.20
2023-01-01T17:57:08.480Z,62.11
2023-01-01T17:59:36.236Z,61.60
2023-01-01T18:02:04.472Z,61.26
2023-01-01T18:04:32.192Z,61.48
2023-01-01T18:07:06.042Z,61.44
2023-01-01T18:09:33.923Z,61.98
2023-01-01T18:12:02.296Z,61.96
2023-01-01T18:14:30.049Z,62.23
2023-01-01T18:16:58.177Z,62.66
2023-01-01T18:19:25.970Z,62.13
2023-01-01T18:21:54.127Z,61.69
2023-01-01T18:24:23.335Z,61.78
2023-01-01T18:26:51.470Z,61.72
2023-01-01T18:29:19.184Z,61.15
2023-01-01T18:31:47.288Z,61.00
2023-01-01T18:34:14.853Z,60.96
2023-01-01T18:36:43.018Z,61.09
2023-01-01T18:39:16.739Z,61.26
2023-01-01T18:42:28.251Z,61.51
2023-01-01T18:45:08.500Z,60.85
2023-01-01T18:47:36.577Z,61.40
2023-01-01T18:50:15.524Z,61.16
2023-01-01T18:52:46.217Z,60.57
2023-01-01T18:55:15.512Z,60.72
2023-01-01T18:57:48.541Z,60.34
2023-01-01T19:00:19.135Z,60.30
2023-01-01T19:02:54.947Z,60.41
2023-01-01T19:05:24.894Z,60.39
2023-01-01T19:08:02.577Z,60.54
2023-01-01T19:10:36.209Z,60.23
2023-01-01T19:13:16.112Z,59.65
2023-01-01T19:15:48.362Z,59.50
2023-01-01T19:18:18.868Z,59.85
2023-01-01T19:20:49.689Z,59.76
2023-01-01T19:23:22.992Z,59.22
2023-01-01T19:25:51.321Z,59.08
2023-01-01T19:28:40.416Z,58.95
2023-01-01T19:31:09.910Z,59.22
2023-01-01T19:33:39.509Z,58.86
2023-01-01T19:36:09.515Z,59.12
2023-01-01T19:38:37.683Z,58.96
2023-01-01T19:41:07.761Z,58.97
2023-01-01T19:43:37.211Z,58.75
2023-01-01T19:46:06.396Z,58.92
2023-01-01T19:48:34.985Z,58.79
2023-01-01T19:51:02.758Z,58.98
2023-01-01T19:53:30.911Z,59.24
2023-01-01T19:55:58.900Z,58.93
2023-01-01T19:58:27.148Z,58.55
2023-01-01T20:00:54.779Z,58.40
2023-01-01T20:06:12.421Z,58.57
2023-01-01T20:08:40.508Z,58.95
2023-01-01T20:11:08.820Z,58.95
2023-01-01T20:13:36.920Z,58.64
2023-01-01T20:16:05.046Z,59.03
2023-01-01T20:18:34.677Z,58.61
2023-01-01T20:21:02.371Z,58.22
2023-01-01T20:23:30.587Z,58.29
2023-01-01T20:25:58.333Z,59.01
2023-01-01T20:28:26.430Z,58.78
2023-01-01T20:30:54.146Z,58.48
2023-01-01T20:33:22.128Z,58.57
2023-01-01T20:35:51.432Z,58.34
2023-01-01T20:38:19.402Z,57.61
2023-01-01T20:40:47.039Z,57.97
2023-01-01T20:43:15.025Z,58.93
2023-01-01T20:45:42.757Z,59.54
2023-01-01T20:48:14.739Z,60.29
2023-01-01T20:50:47.120Z,60.48
2023-01-01T20:53:16.661Z,61.40
2023-01-01T20:55:44.528Z,62.46
2023-01-01T20:58:12.603Z,62.58
2023-01-01T21:00:40.317Z,63.50
2023-01-01T21:03:08.518Z,63.65
2023-01-01T21:05:36.188Z,63.31
2023-01-01T21:08:04.836Z,63.30
2023-01-01T21:10:34.099Z,62.21
2023-01-01T21:13:02.433Z,62.29
2023-01-01T21:15:30.206Z,62.86
2023-01-01T21:17:58.992Z,62.05
2023-01-01T21:20:30.369Z,62.31
2023-01-01T21:23:00.444Z,62.99
2023-01-01T21:28:20.029Z,62.35
2023-01-01T21:30:51.028Z,62.69
2023-01-01T21:33:25.717Z,62.98
2023-01-01T21:35:53.437Z,63.21
2023-01-01T21:38:24.847Z,63.29
2023-01-01T21:40:53.236Z,63.26
2023-01-01T21:43:37.630Z,62.92
2023-01-01T21:46:32.378Z,63.09
2023-01-01T21:49:04.346Z,63.15
2023-01-01T21:51:33.530Z,63.57
2023-01-01T21:54:14.821Z,63.37
2023-01-01T21:56:43.458Z,63.02
2023-01-01T21:59:16.498Z,62.77
2023-01-01T22:01:45.512Z,62.76
2023-01-01T22:04:19.799Z,62.91
2023-01-01T22:06:49.878Z,62.92
2023-01-01T22:09:21.794Z,62.31
2023-01-01T22:11:51.074Z,62.00
2023-01-01T22:14:26.416Z,62.22
2023-01-01T22:16:55.436Z,61.76
2023-01-01T22:19:28.341Z,61.39
2023-01-01T22:21:55.871Z,62.15
2023-01-01T22:24:34.410Z,62.24
2023-01-01T22:27:23.302Z,61.63
2023-01-01T22:29:52.981Z,60.67
2023-01-01T22:32:24.253Z,60.39
2023-01-01T22:34:54.858Z,59.84
2023-01-01T22:37:27.416Z,59.64
2023-01-01T22:39:55.404Z,59.38
2023-01-01T22:42:23.015Z,59.20
2023-01-01T22:44:58.282Z,58.67
2023-01-01T22:47:33.098Z,58.68
2023-01-01T22:50:02.127Z,59.30
2023-01-01T22:52:29.884Z,59.28
2023-01-01T22:54:57.940Z,58.74
2023-01-01T22:57:25.507Z,58.73
2023-01-01T22:59:53.505Z,58.52
2023-01-01T23:02:22.606Z,58.48
2023-01-01T23:04:50.706Z,58.72
2023-01-01T23:07:18.465Z,59.09
2023-01-01T23:09:46.589Z,59.01
2023-01-01T23:12:14.111Z,60.15
2023-01-01T23:14:45.111Z,61.26
2023-01-01T23:17:12.722Z,61.13
2023-01-01T23:19:42.231Z,60.54
2023-01-01T23:22:09.875Z,60.64
2023-01-01T23:24:41.076Z,61.08
2023-01-01T23:27:08.635Z,61.17
2023-01-01T23:29:36.895Z,62.33
2023-01-01T23:32:04.966Z,61.47
2023-01-01T23:34:33.570Z,60.35
2023-01-01T23:37:02.662Z,60.25
2023-01-01T23:39:30.782Z,59.85
2023-01-01T23:41:58.544Z,59.04
2023-01-01T23:44:26.406Z,58.90
2023-01-01T23:46:54.429Z,59.18
2023-01-01T23:49:23.137Z,59.40
2023-01-01T23:51:50.907Z,59.45
2023-01-01T23:54:20.614Z,59.59
2023-01-01T23:56:48.173Z,59.40
2023-01-01T23:59:16.112Z,59.88
